Pagrindinis puslapis
METAR-TAF:

METAR-TAF

Oro uostai :

Savanaketas, Laosas

platuma: 16-33-24N, ilguma: 104-45-34E, Aukštis: 155 m

Dabartinis oras

Ataskaita buvo paskelbta 27 minutes, ne 07:00 UTC
Vėjas 2 kt iš Šiaurės Rytų
Temperatūra 32°C
Drėgmė 32%
Slėgis 1019 hPa
Matomumas: 8000 m

METAR: VLSK 230700Z 04002KT 8000 NSC 32/13 Q1019 NOSIG

Laikas: 14:27 (07:27 UTC)

Prognozė

Ataskaita buvo paskelbta 2 valandos ir 27 minutes, ne 05:00 UTC
Prognozė galioja nuo 23 metu 06 UTC su 24 metu 06 UTC
Vėjas 8 kt iš Šiaurės Rytų
Matomumas: 8000 m
Mažai debesys ne aukštis 2000 ft
Mažai debesys ne aukštis 5000 ft
Mažai debesys ne aukštis 10000 ft

TAF: VLSK 230500Z 2306/2406 04008KT 8000 FEW020 FEW050 FEW100

Orai ataskaitas ir orų prognozės (METAR, TAF).

turimą stotys yra geltonos ir raudonos taškus žemėlapyje.

Perkelti pele per norėdami pamatyti stoties vardą.

Tada spustelėkite, norėdami matyti oro stebėjimo ir prognozės.

Norėdami pakeisti žemėlapį: spustelėkite ant žalios mygtukų su juodo kryžiaus žemyn,; žalią mygtuką su brūkšneliu, jei norite nutolinti; arba žalių rodyklių gretimoms žemėlapius.


METAR-TAF: